sensor_id;sensor_type;location;lat;lon;timestamp;P1;durP1;ratioP1;P2;durP2;ratioP2
25237;SDS011;13185;50.872;5.306;2023-03-31T00:01:34;4.90;;;1.08;;
25237;SDS011;13185;50.872;5.306;2023-03-31T00:04:01;8.57;;;1.30;;
25237;SDS011;13185;50.872;5.306;2023-03-31T00:06:30;7.75;;;1.73;;
25237;SDS011;13185;50.872;5.306;2023-03-31T00:09:05;8.37;;;1.47;;
25237;SDS011;13185;50.872;5.306;2023-03-31T00:11:38;8.50;;;1.42;;
25237;SDS011;13185;50.872;5.306;2023-03-31T00:14:05;6.53;;;1.30;;
25237;SDS011;13185;50.872;5.306;2023-03-31T00:16:35;11.95;;;2.55;;
25237;SDS011;13185;50.872;5.306;2023-03-31T00:19:02;7.55;;;1.60;;
25237;SDS011;13185;50.872;5.306;2023-03-31T00:21:28;7.47;;;1.27;;
25237;SDS011;13185;50.872;5.306;2023-03-31T00:24:04;12.43;;;2.58;;
25237;SDS011;13185;50.872;5.306;2023-03-31T00:26:31;7.40;;;1.13;;
25237;SDS011;13185;50.872;5.306;2023-03-31T00:28:58;9.63;;;1.60;;
25237;SDS011;13185;50.872;5.306;2023-03-31T00:31:25;9.75;;;1.90;;
25237;SDS011;13185;50.872;5.306;2023-03-31T00:33:52;11.63;;;1.75;;
25237;SDS011;13185;50.872;5.306;2023-03-31T00:36:18;7.57;;;1.52;;
25237;SDS011;13185;50.872;5.306;2023-03-31T00:39:01;13.35;;;2.15;;
25237;SDS011;13185;50.872;5.306;2023-03-31T00:41:34;11.63;;;1.98;;
25237;SDS011;13185;50.872;5.306;2023-03-31T00:51:56;13.57;;;1.92;;
25237;SDS011;13185;50.872;5.306;2023-03-31T00:54:26;12.48;;;2.05;;
25237;SDS011;13185;50.872;5.306;2023-03-31T00:56:54;9.57;;;2.20;;
25237;SDS011;13185;50.872;5.306;2023-03-31T00:59:24;13.13;;;1.67;;
25237;SDS011;13185;50.872;5.306;2023-03-31T01:01:53;10.65;;;1.85;;
25237;SDS011;13185;50.872;5.306;2023-03-31T01:04:23;10.15;;;1.75;;
25237;SDS011;13185;50.872;5.306;2023-03-31T01:07:13;10.88;;;1.75;;
25237;SDS011;13185;50.872;5.306;2023-03-31T01:09:43;12.00;;;2.30;;
25237;SDS011;13185;50.872;5.306;2023-03-31T01:12:13;9.60;;;1.98;;
25237;SDS011;13185;50.872;5.306;2023-03-31T01:14:42;12.43;;;1.83;;
25237;SDS011;13185;50.872;5.306;2023-03-31T01:17:08;11.82;;;2.03;;
25237;SDS011;13185;50.872;5.306;2023-03-31T01:22:50;15.40;;;2.17;;
25237;SDS011;13185;50.872;5.306;2023-03-31T01:28:15;13.85;;;2.28;;
25237;SDS011;13185;50.872;5.306;2023-03-31T01:47:58;8.18;;;1.38;;
25237;SDS011;13185;50.872;5.306;2023-03-31T01:50:37;10.88;;;2.05;;
25237;SDS011;13185;50.872;5.306;2023-03-31T01:53:32;11.63;;;2.33;;
25237;SDS011;13185;50.872;5.306;2023-03-31T01:56:09;8.52;;;1.42;;
25237;SDS011;13185;50.872;5.306;2023-03-31T01:59:00;11.13;;;1.50;;
25237;SDS011;13185;50.872;5.306;2023-03-31T02:01:34;7.68;;;1.40;;
25237;SDS011;13185;50.872;5.306;2023-03-31T02:04:08;5.82;;;1.40;;
25237;SDS011;13185;50.872;5.306;2023-03-31T02:06:40;8.85;;;1.50;;
25237;SDS011;13185;50.872;5.306;2023-03-31T02:09:12;9.80;;;1.52;;
25237;SDS011;13185;50.872;5.306;2023-03-31T02:11:43;7.32;;;1.20;;
25237;SDS011;13185;50.872;5.306;2023-03-31T02:14:15;8.20;;;1.27;;
25237;SDS011;13185;50.872;5.306;2023-03-31T02:16:46;7.93;;;1.23;;
25237;SDS011;13185;50.872;5.306;2023-03-31T02:19:17;8.73;;;1.17;;
25237;SDS011;13185;50.872;5.306;2023-03-31T02:21:45;9.57;;;1.33;;
25237;SDS011;13185;50.872;5.306;2023-03-31T02:24:14;9.07;;;1.30;;
25237;SDS011;13185;50.872;5.306;2023-03-31T02:26:43;7.28;;;1.00;;
25237;SDS011;13185;50.872;5.306;2023-03-31T02:29:16;9.82;;;1.10;;
25237;SDS011;13185;50.872;5.306;2023-03-31T02:31:46;7.72;;;1.02;;
25237;SDS011;13185;50.872;5.306;2023-03-31T02:34:17;7.00;;;1.48;;
25237;SDS011;13185;50.872;5.306;2023-03-31T02:36:43;6.28;;;1.27;;
25237;SDS011;13185;50.872;5.306;2023-03-31T02:39:15;4.15;;;1.13;;
25237;SDS011;13185;50.872;5.306;2023-03-31T02:41:44;6.40;;;1.02;;
25237;SDS011;13185;50.872;5.306;2023-03-31T02:44:10;5.40;;;1.65;;
25237;SDS011;13185;50.872;5.306;2023-03-31T02:46:36;8.18;;;0.90;;
25237;SDS011;13185;50.872;5.306;2023-03-31T02:49:03;4.15;;;1.20;;
25237;SDS011;13185;50.872;5.306;2023-03-31T02:51:36;6.57;;;1.75;;
25237;SDS011;13185;50.872;5.306;2023-03-31T03:10:07;4.70;;;0.93;;
25237;SDS011;13185;50.872;5.306;2023-03-31T03:12:42;7.18;;;0.73;;
25237;SDS011;13185;50.872;5.306;2023-03-31T03:15:35;6.80;;;0.90;;
25237;SDS011;13185;50.872;5.306;2023-03-31T03:18:07;6.32;;;0.70;;
25237;SDS011;13185;50.872;5.306;2023-03-31T03:20:33;4.55;;;1.67;;
25237;SDS011;13185;50.872;5.306;2023-03-31T03:23:00;5.45;;;0.85;;
25237;SDS011;13185;50.872;5.306;2023-03-31T03:25:25;3.78;;;1.00;;
25237;SDS011;13185;50.872;5.306;2023-03-31T03:27:51;5.90;;;0.88;;
25237;SDS011;13185;50.872;5.306;2023-03-31T03:30:19;4.63;;;0.90;;
25237;SDS011;13185;50.872;5.306;2023-03-31T03:32:45;4.63;;;0.50;;
25237;SDS011;13185;50.872;5.306;2023-03-31T03:35:11;4.85;;;0.65;;
25237;SDS011;13185;50.872;5.306;2023-03-31T03:37:37;4.22;;;1.15;;
25237;SDS011;13185;50.872;5.306;2023-03-31T03:40:02;5.63;;;0.88;;
25237;SDS011;13185;50.872;5.306;2023-03-31T03:42:30;2.95;;;0.60;;
25237;SDS011;13185;50.872;5.306;2023-03-31T03:44:56;4.95;;;0.77;;
25237;SDS011;13185;50.872;5.306;2023-03-31T03:47:21;3.25;;;0.63;;
25237;SDS011;13185;50.872;5.306;2023-03-31T03:49:47;4.20;;;1.42;;
25237;SDS011;13185;50.872;5.306;2023-03-31T03:52:13;6.57;;;1.00;;
25237;SDS011;13185;50.872;5.306;2023-03-31T03:54:39;4.45;;;0.80;;
25237;SDS011;13185;50.872;5.306;2023-03-31T03:57:05;8.45;;;1.05;;
25237;SDS011;13185;50.872;5.306;2023-03-31T03:59:31;2.65;;;0.50;;
25237;SDS011;13185;50.872;5.306;2023-03-31T04:01:57;6.03;;;1.40;;
25237;SDS011;13185;50.872;5.306;2023-03-31T04:04:23;4.32;;;0.88;;
25237;SDS011;13185;50.872;5.306;2023-03-31T04:06:49;3.95;;;0.70;;
25237;SDS011;13185;50.872;5.306;2023-03-31T04:09:14;7.13;;;0.75;;
25237;SDS011;13185;50.872;5.306;2023-03-31T04:11:40;3.30;;;0.52;;
25237;SDS011;13185;50.872;5.306;2023-03-31T04:14:05;4.10;;;0.77;;
25237;SDS011;13185;50.872;5.306;2023-03-31T04:16:31;5.40;;;0.52;;
25237;SDS011;13185;50.872;5.306;2023-03-31T04:18:58;3.47;;;0.70;;
25237;SDS011;13185;50.872;5.306;2023-03-31T04:21:28;4.22;;;1.10;;
25237;SDS011;13185;50.872;5.306;2023-03-31T04:23:55;4.30;;;1.10;;
25237;SDS011;13185;50.872;5.306;2023-03-31T04:26:27;6.22;;;0.85;;
25237;SDS011;13185;50.872;5.306;2023-03-31T04:29:14;6.65;;;1.00;;
25237;SDS011;13185;50.872;5.306;2023-03-31T04:31:40;5.85;;;0.85;;
25237;SDS011;13185;50.872;5.306;2023-03-31T04:34:11;5.75;;;1.15;;
25237;SDS011;13185;50.872;5.306;2023-03-31T04:36:39;11.32;;;1.92;;
25237;SDS011;13185;50.872;5.306;2023-03-31T04:39:07;5.90;;;1.20;;
25237;SDS011;13185;50.872;5.306;2023-03-31T04:41:36;6.57;;;0.82;;
25237;SDS011;13185;50.872;5.306;2023-03-31T04:44:02;3.85;;;0.70;;
25237;SDS011;13185;50.872;5.306;2023-03-31T04:46:27;5.18;;;1.08;;
25237;SDS011;13185;50.872;5.306;2023-03-31T04:48:53;6.40;;;0.93;;
25237;SDS011;13185;50.872;5.306;2023-03-31T04:51:18;7.38;;;0.80;;
25237;SDS011;13185;50.872;5.306;2023-03-31T04:53:44;5.30;;;0.90;;
25237;SDS011;13185;50.872;5.306;2023-03-31T04:56:10;3.80;;;0.90;;
25237;SDS011;13185;50.872;5.306;2023-03-31T04:58:36;4.85;;;0.88;;
25237;SDS011;13185;50.872;5.306;2023-03-31T05:01:02;5.28;;;1.23;;
25237;SDS011;13185;50.872;5.306;2023-03-31T05:03:30;5.38;;;0.77;;
25237;SDS011;13185;50.872;5.306;2023-03-31T05:05:56;8.73;;;1.80;;
25237;SDS011;13185;50.872;5.306;2023-03-31T05:08:22;5.50;;;0.90;;
25237;SDS011;13185;50.872;5.306;2023-03-31T05:10:48;5.78;;;1.05;;
25237;SDS011;13185;50.872;5.306;2023-03-31T05:13:13;2.85;;;0.98;;
25237;SDS011;13185;50.872;5.306;2023-03-31T05:15:39;6.30;;;1.25;;
25237;SDS011;13185;50.872;5.306;2023-03-31T05:18:05;7.32;;;1.42;;
25237;SDS011;13185;50.872;5.306;2023-03-31T05:20:32;6.25;;;1.30;;
25237;SDS011;13185;50.872;5.306;2023-03-31T05:22:57;3.90;;;0.70;;
25237;SDS011;13185;50.872;5.306;2023-03-31T05:25:23;6.55;;;1.23;;
25237;SDS011;13185;50.872;5.306;2023-03-31T05:27:48;8.80;;;1.42;;
25237;SDS011;13185;50.872;5.306;2023-03-31T05:30:15;10.27;;;1.60;;
25237;SDS011;13185;50.872;5.306;2023-03-31T05:32:42;6.50;;;1.70;;
25237;SDS011;13185;50.872;5.306;2023-03-31T05:35:08;5.03;;;0.98;;
25237;SDS011;13185;50.872;5.306;2023-03-31T05:37:34;4.75;;;0.80;;
25237;SDS011;13185;50.872;5.306;2023-03-31T05:40:00;5.95;;;1.42;;
25237;SDS011;13185;50.872;5.306;2023-03-31T05:42:28;4.43;;;0.82;;
25237;SDS011;13185;50.872;5.306;2023-03-31T05:44:53;4.75;;;1.48;;
25237;SDS011;13185;50.872;5.306;2023-03-31T05:47:19;5.63;;;1.00;;
25237;SDS011;13185;50.872;5.306;2023-03-31T05:49:45;5.43;;;1.10;;
25237;SDS011;13185;50.872;5.306;2023-03-31T05:52:10;5.75;;;1.40;;
25237;SDS011;13185;50.872;5.306;2023-03-31T05:54:36;5.57;;;0.90;;
25237;SDS011;13185;50.872;5.306;2023-03-31T05:57:02;6.95;;;1.67;;
25237;SDS011;13185;50.872;5.306;2023-03-31T05:59:28;6.00;;;1.35;;
25237;SDS011;13185;50.872;5.306;2023-03-31T06:01:53;6.28;;;0.98;;
25237;SDS011;13185;50.872;5.306;2023-03-31T06:04:19;7.75;;;0.70;;
25237;SDS011;13185;50.872;5.306;2023-03-31T06:06:44;3.45;;;0.70;;
25237;SDS011;13185;50.872;5.306;2023-03-31T06:09:10;9.23;;;1.52;;
25237;SDS011;13185;50.872;5.306;2023-03-31T06:11:36;5.22;;;0.70;;
25237;SDS011;13185;50.872;5.306;2023-03-31T06:14:03;7.05;;;1.58;;
25237;SDS011;13185;50.872;5.306;2023-03-31T06:16:29;8.68;;;1.08;;
25237;SDS011;13185;50.872;5.306;2023-03-31T06:18:54;6.97;;;1.20;;
25237;SDS011;13185;50.872;5.306;2023-03-31T06:21:20;6.22;;;1.23;;
25237;SDS011;13185;50.872;5.306;2023-03-31T06:23:46;5.10;;;0.80;;
25237;SDS011;13185;50.872;5.306;2023-03-31T06:26:16;7.22;;;0.85;;
25237;SDS011;13185;50.872;5.306;2023-03-31T06:28:43;7.45;;;1.40;;
25237;SDS011;13185;50.872;5.306;2023-03-31T06:31:11;4.75;;;1.23;;
25237;SDS011;13185;50.872;5.306;2023-03-31T06:33:38;8.65;;;1.65;;
25237;SDS011;13185;50.872;5.306;2023-03-31T06:36:06;8.10;;;1.75;;
25237;SDS011;13185;50.872;5.306;2023-03-31T06:38:32;8.57;;;1.58;;
25237;SDS011;13185;50.872;5.306;2023-03-31T06:40:58;12.68;;;1.30;;
25237;SDS011;13185;50.872;5.306;2023-03-31T06:43:24;8.30;;;1.75;;
25237;SDS011;13185;50.872;5.306;2023-03-31T06:45:51;10.35;;;1.50;;
25237;SDS011;13185;50.872;5.306;2023-03-31T06:48:17;10.65;;;1.83;;
25237;SDS011;13185;50.872;5.306;2023-03-31T06:50:43;7.45;;;1.23;;
25237;SDS011;13185;50.872;5.306;2023-03-31T06:53:08;14.77;;;1.50;;
25237;SDS011;13185;50.872;5.306;2023-03-31T06:55:35;9.15;;;1.60;;
25237;SDS011;13185;50.872;5.306;2023-03-31T06:58:01;7.88;;;1.33;;
25237;SDS011;13185;50.872;5.306;2023-03-31T07:00:27;6.63;;;1.30;;
25237;SDS011;13185;50.872;5.306;2023-03-31T07:02:53;8.25;;;1.50;;
25237;SDS011;13185;50.872;5.306;2023-03-31T07:05:19;13.32;;;2.47;;
25237;SDS011;13185;50.872;5.306;2023-03-31T07:07:51;9.65;;;2.10;;
25237;SDS011;13185;50.872;5.306;2023-03-31T07:10:20;10.52;;;3.05;;
25237;SDS011;13185;50.872;5.306;2023-03-31T07:12:47;8.77;;;1.35;;
25237;SDS011;13185;50.872;5.306;2023-03-31T07:15:13;12.45;;;1.73;;
25237;SDS011;13185;50.872;5.306;2023-03-31T07:17:38;14.32;;;2.40;;
25237;SDS011;13185;50.872;5.306;2023-03-31T07:20:10;7.78;;;1.70;;
25237;SDS011;13185;50.872;5.306;2023-03-31T07:22:39;6.85;;;1.25;;
25237;SDS011;13185;50.872;5.306;2023-03-31T07:25:06;11.00;;;1.85;;
25237;SDS011;13185;50.872;5.306;2023-03-31T07:27:33;6.40;;;1.45;;
25237;SDS011;13185;50.872;5.306;2023-03-31T07:29:59;11.60;;;1.83;;
25237;SDS011;13185;50.872;5.306;2023-03-31T07:32:25;8.43;;;2.00;;
25237;SDS011;13185;50.872;5.306;2023-03-31T07:34:50;11.30;;;2.00;;
25237;SDS011;13185;50.872;5.306;2023-03-31T07:37:16;11.27;;;1.77;;
25237;SDS011;13185;50.872;5.306;2023-03-31T07:39:42;10.52;;;2.33;;
25237;SDS011;13185;50.872;5.306;2023-03-31T07:42:07;8.35;;;2.28;;
25237;SDS011;13185;50.872;5.306;2023-03-31T07:44:33;8.07;;;2.05;;
25237;SDS011;13185;50.872;5.306;2023-03-31T07:47:00;12.30;;;1.85;;
25237;SDS011;13185;50.872;5.306;2023-03-31T07:49:32;9.27;;;1.77;;
25237;SDS011;13185;50.872;5.306;2023-03-31T07:51:58;12.52;;;1.95;;
25237;SDS011;13185;50.872;5.306;2023-03-31T07:54:25;12.40;;;2.22;;
25237;SDS011;13185;50.872;5.306;2023-03-31T07:56:50;11.02;;;2.40;;
25237;SDS011;13185;50.872;5.306;2023-03-31T07:59:16;13.20;;;2.55;;
25237;SDS011;13185;50.872;5.306;2023-03-31T08:01:42;14.77;;;3.33;;
25237;SDS011;13185;50.872;5.306;2023-03-31T08:04:08;9.10;;;1.85;;
25237;SDS011;13185;50.872;5.306;2023-03-31T08:06:35;7.50;;;2.55;;
25237;SDS011;13185;50.872;5.306;2023-03-31T08:09:00;11.20;;;2.22;;
25237;SDS011;13185;50.872;5.306;2023-03-31T08:11:27;13.15;;;1.80;;
25237;SDS011;13185;50.872;5.306;2023-03-31T08:13:52;11.07;;;2.35;;
25237;SDS011;13185;50.872;5.306;2023-03-31T08:16:18;11.48;;;2.42;;
25237;SDS011;13185;50.872;5.306;2023-03-31T08:18:43;10.18;;;2.05;;
25237;SDS011;13185;50.872;5.306;2023-03-31T08:21:09;9.07;;;1.77;;
25237;SDS011;13185;50.872;5.306;2023-03-31T08:23:35;10.02;;;2.35;;
25237;SDS011;13185;50.872;5.306;2023-03-31T08:26:22;11.27;;;1.98;;
25237;SDS011;13185;50.872;5.306;2023-03-31T08:28:48;9.57;;;1.70;;
25237;SDS011;13185;50.872;5.306;2023-03-31T08:31:15;9.80;;;2.10;;
25237;SDS011;13185;50.872;5.306;2023-03-31T08:33:42;9.13;;;2.20;;
25237;SDS011;13185;50.872;5.306;2023-03-31T08:36:09;11.73;;;2.38;;
25237;SDS011;13185;50.872;5.306;2023-03-31T08:38:35;11.30;;;2.35;;
25237;SDS011;13185;50.872;5.306;2023-03-31T08:41:04;12.45;;;2.80;;
25237;SDS011;13185;50.872;5.306;2023-03-31T08:43:36;11.27;;;2.85;;
25237;SDS011;13185;50.872;5.306;2023-03-31T08:46:07;13.70;;;2.42;;
25237;SDS011;13185;50.872;5.306;2023-03-31T08:48:41;16.73;;;5.20;;
25237;SDS011;13185;50.872;5.306;2023-03-31T08:51:20;14.80;;;2.80;;
25237;SDS011;13185;50.872;5.306;2023-03-31T08:53:58;10.88;;;2.40;;
25237;SDS011;13185;50.872;5.306;2023-03-31T08:56:27;11.20;;;1.90;;
25237;SDS011;13185;50.872;5.306;2023-03-31T08:58:54;10.77;;;2.47;;
25237;SDS011;13185;50.872;5.306;2023-03-31T09:04:21;11.75;;;1.92;;
25237;SDS011;13185;50.872;5.306;2023-03-31T09:12:28;8.23;;;2.17;;
25237;SDS011;13185;50.872;5.306;2023-03-31T09:17:50;12.02;;;1.83;;
25237;SDS011;13185;50.872;5.306;2023-03-31T09:20:19;11.32;;;2.53;;
25237;SDS011;13185;50.872;5.306;2023-03-31T09:22:59;8.43;;;1.95;;
25237;SDS011;13185;50.872;5.306;2023-03-31T09:25:33;9.55;;;1.98;;
25237;SDS011;13185;50.872;5.306;2023-03-31T09:28:02;8.63;;;1.77;;
25237;SDS011;13185;50.872;5.306;2023-03-31T09:30:33;9.70;;;1.50;;
25237;SDS011;13185;50.872;5.306;2023-03-31T09:35:52;10.82;;;1.58;;
25237;SDS011;13185;50.872;5.306;2023-03-31T09:38:18;7.18;;;1.30;;
25237;SDS011;13185;50.872;5.306;2023-03-31T09:40:43;10.90;;;2.80;;
25237;SDS011;13185;50.872;5.306;2023-03-31T09:43:20;4.97;;;1.00;;
25237;SDS011;13185;50.872;5.306;2023-03-31T09:45:48;9.80;;;2.05;;
25237;SDS011;13185;50.872;5.306;2023-03-31T09:48:17;7.50;;;1.70;;
25237;SDS011;13185;50.872;5.306;2023-03-31T09:50:47;7.40;;;1.33;;
25237;SDS011;13185;50.872;5.306;2023-03-31T09:53:24;7.10;;;1.30;;
25237;SDS011;13185;50.872;5.306;2023-03-31T09:56:01;6.18;;;1.30;;
25237;SDS011;13185;50.872;5.306;2023-03-31T09:58:30;8.98;;;1.83;;
25237;SDS011;13185;50.872;5.306;2023-03-31T10:01:06;10.05;;;1.63;;
25237;SDS011;13185;50.872;5.306;2023-03-31T10:03:51;6.40;;;1.63;;
25237;SDS011;13185;50.872;5.306;2023-03-31T10:06:19;5.75;;;0.95;;
25237;SDS011;13185;50.872;5.306;2023-03-31T10:11:27;6.25;;;1.08;;
25237;SDS011;13185;50.872;5.306;2023-03-31T10:16:31;12.32;;;2.10;;
25237;SDS011;13185;50.872;5.306;2023-03-31T10:19:20;8.43;;;1.75;;
25237;SDS011;13185;50.872;5.306;2023-03-31T10:21:58;10.98;;;1.83;;
25237;SDS011;13185;50.872;5.306;2023-03-31T10:24:38;7.85;;;1.90;;
25237;SDS011;13185;50.872;5.306;2023-03-31T10:27:27;11.98;;;2.33;;
25237;SDS011;13185;50.872;5.306;2023-03-31T10:29:55;10.70;;;2.40;;
25237;SDS011;13185;50.872;5.306;2023-03-31T10:32:29;10.75;;;2.40;;
25237;SDS011;13185;50.872;5.306;2023-03-31T10:34:57;12.70;;;2.70;;
25237;SDS011;13185;50.872;5.306;2023-03-31T10:37:28;12.50;;;2.50;;
25237;SDS011;13185;50.872;5.306;2023-03-31T10:39:59;13.27;;;2.67;;
25237;SDS011;13185;50.872;5.306;2023-03-31T10:42:30;15.98;;;3.08;;
25237;SDS011;13185;50.872;5.306;2023-03-31T10:47:53;15.52;;;2.63;;
25237;SDS011;13185;50.872;5.306;2023-03-31T10:50:25;11.82;;;2.28;;
25237;SDS011;13185;50.872;5.306;2023-03-31T10:53:03;11.85;;;2.40;;
25237;SDS011;13185;50.872;5.306;2023-03-31T10:55:35;16.10;;;2.55;;
25237;SDS011;13185;50.872;5.306;2023-03-31T11:14:45;10.98;;;2.65;;
25237;SDS011;13185;50.872;5.306;2023-03-31T11:31:26;9.45;;;1.75;;
25237;SDS011;13185;50.872;5.306;2023-03-31T11:39:13;10.02;;;2.15;;
25237;SDS011;13185;50.872;5.306;2023-03-31T11:41:51;5.78;;;1.40;;
25237;SDS011;13185;50.872;5.306;2023-03-31T11:44:21;7.55;;;1.17;;
25237;SDS011;13185;50.872;5.306;2023-03-31T11:46:53;9.10;;;1.65;;
25237;SDS011;13185;50.872;5.306;2023-03-31T11:49:26;7.90;;;1.30;;
25237;SDS011;13185;50.872;5.306;2023-03-31T12:00:19;6.38;;;1.48;;
25237;SDS011;13185;50.872;5.306;2023-03-31T12:02:52;7.93;;;1.83;;
25237;SDS011;13185;50.872;5.306;2023-03-31T12:05:23;6.35;;;1.50;;
25237;SDS011;13185;50.872;5.306;2023-03-31T12:10:45;8.93;;;1.65;;
25237;SDS011;13185;50.872;5.306;2023-03-31T12:13:25;6.32;;;1.23;;
25237;SDS011;13185;50.872;5.306;2023-03-31T12:18:42;8.85;;;1.83;;
25237;SDS011;13185;50.872;5.306;2023-03-31T12:21:20;6.45;;;1.38;;
25237;SDS011;13185;50.872;5.306;2023-03-31T12:23:49;5.43;;;1.15;;
25237;SDS011;13185;50.872;5.306;2023-03-31T12:29:11;8.38;;;1.20;;
25237;SDS011;13185;50.872;5.306;2023-03-31T12:31:44;9.18;;;1.85;;
25237;SDS011;13185;50.872;5.306;2023-03-31T12:34:14;6.82;;;1.60;;
25237;SDS011;13185;50.872;5.306;2023-03-31T12:42:52;6.13;;;1.17;;
25237;SDS011;13185;50.872;5.306;2023-03-31T12:45:29;6.45;;;1.55;;
25237;SDS011;13185;50.872;5.306;2023-03-31T12:57:22;7.53;;;1.30;;
25237;SDS011;13185;50.872;5.306;2023-03-31T13:02:31;7.95;;;1.80;;
25237;SDS011;13185;50.872;5.306;2023-03-31T13:04:57;8.45;;;1.63;;
25237;SDS011;13185;50.872;5.306;2023-03-31T13:09:57;8.32;;;1.45;;
25237;SDS011;13185;50.872;5.306;2023-03-31T13:12:38;4.10;;;0.70;;
25237;SDS011;13185;50.872;5.306;2023-03-31T13:15:04;8.85;;;1.77;;
25237;SDS011;13185;50.872;5.306;2023-03-31T13:22:47;5.95;;;1.30;;
25237;SDS011;13185;50.872;5.306;2023-03-31T13:27:53;11.80;;;2.15;;
25237;SDS011;13185;50.872;5.306;2023-03-31T13:36:25;9.57;;;1.52;;
25237;SDS011;13185;50.872;5.306;2023-03-31T13:52:35;1.40;;;0.55;;
25237;SDS011;13185;50.872;5.306;2023-03-31T13:58:13;6.20;;;1.38;;
25237;SDS011;13185;50.872;5.306;2023-03-31T14:06:40;6.93;;;1.73;;
25237;SDS011;13185;50.872;5.306;2023-03-31T14:09:35;4.93;;;1.05;;
25237;SDS011;13185;50.872;5.306;2023-03-31T14:12:02;6.50;;;1.02;;
25237;SDS011;13185;50.872;5.306;2023-03-31T14:15:02;7.78;;;1.30;;
25237;SDS011;13185;50.872;5.306;2023-03-31T14:17:36;6.32;;;1.02;;
25237;SDS011;13185;50.872;5.306;2023-03-31T14:39:03;4.15;;;0.88;;
25237;SDS011;13185;50.872;5.306;2023-03-31T14:41:31;5.20;;;0.85;;
25237;SDS011;13185;50.872;5.306;2023-03-31T14:43:59;2.72;;;0.40;;
25237;SDS011;13185;50.872;5.306;2023-03-31T14:46:29;2.22;;;0.70;;
25237;SDS011;13185;50.872;5.306;2023-03-31T14:49:04;4.32;;;0.80;;
25237;SDS011;13185;50.872;5.306;2023-03-31T14:51:43;4.47;;;0.70;;
25237;SDS011;13185;50.872;5.306;2023-03-31T14:54:16;1.70;;;0.45;;
25237;SDS011;13185;50.872;5.306;2023-03-31T14:59:11;2.08;;;0.45;;
25237;SDS011;13185;50.872;5.306;2023-03-31T15:01:41;2.22;;;0.43;;
25237;SDS011;13185;50.872;5.306;2023-03-31T15:04:11;4.20;;;0.52;;
25237;SDS011;13185;50.872;5.306;2023-03-31T15:06:39;1.25;;;0.30;;
25237;SDS011;13185;50.872;5.306;2023-03-31T15:09:06;3.90;;;0.47;;
25237;SDS011;13185;50.872;5.306;2023-03-31T15:11:37;1.85;;;0.25;;
25237;SDS011;13185;50.872;5.306;2023-03-31T15:14:03;1.17;;;0.10;;
25237;SDS011;13185;50.872;5.306;2023-03-31T15:16:42;0.93;;;0.35;;
25237;SDS011;13185;50.872;5.306;2023-03-31T15:21:45;1.08;;;0.13;;
25237;SDS011;13185;50.872;5.306;2023-03-31T15:24:18;1.25;;;0.20;;
25237;SDS011;13185;50.872;5.306;2023-03-31T15:26:53;2.47;;;0.28;;
25237;SDS011;13185;50.872;5.306;2023-03-31T15:29:27;3.60;;;0.50;;
25237;SDS011;13185;50.872;5.306;2023-03-31T15:32:03;4.35;;;0.70;;
25237;SDS011;13185;50.872;5.306;2023-03-31T15:34:36;2.80;;;0.60;;
25237;SDS011;13185;50.872;5.306;2023-03-31T15:37:02;2.25;;;0.45;;
25237;SDS011;13185;50.872;5.306;2023-03-31T15:39:31;3.15;;;0.77;;
25237;SDS011;13185;50.872;5.306;2023-03-31T15:42:03;2.20;;;0.20;;
25237;SDS011;13185;50.872;5.306;2023-03-31T15:44:34;2.63;;;0.40;;
25237;SDS011;13185;50.872;5.306;2023-03-31T15:49:49;1.50;;;0.40;;
25237;SDS011;13185;50.872;5.306;2023-03-31T15:52:31;1.75;;;0.30;;
25237;SDS011;13185;50.872;5.306;2023-03-31T15:55:00;3.90;;;0.60;;
25237;SDS011;13185;50.872;5.306;2023-03-31T15:57:46;3.75;;;0.30;;
25237;SDS011;13185;50.872;5.306;2023-03-31T16:00:39;3.22;;;0.32;;
25237;SDS011;13185;50.872;5.306;2023-03-31T16:03:04;2.17;;;0.43;;
25237;SDS011;13185;50.872;5.306;2023-03-31T16:05:57;1.67;;;0.65;;
25237;SDS011;13185;50.872;5.306;2023-03-31T16:08:30;1.90;;;0.30;;
25237;SDS011;13185;50.872;5.306;2023-03-31T16:11:11;2.97;;;0.63;;
25237;SDS011;13185;50.872;5.306;2023-03-31T16:13:48;5.35;;;0.70;;
25237;SDS011;13185;50.872;5.306;2023-03-31T16:16:19;5.72;;;0.60;;
25237;SDS011;13185;50.872;5.306;2023-03-31T16:19:09;6.85;;;0.63;;
25237;SDS011;13185;50.872;5.306;2023-03-31T16:21:39;3.30;;;0.63;;
25237;SDS011;13185;50.872;5.306;2023-03-31T16:24:08;4.38;;;0.90;;
25237;SDS011;13185;50.872;5.306;2023-03-31T16:26:34;5.70;;;0.80;;
25237;SDS011;13185;50.872;5.306;2023-03-31T16:29:01;3.15;;;0.60;;
25237;SDS011;13185;50.872;5.306;2023-03-31T16:31:29;2.70;;;0.80;;
25237;SDS011;13185;50.872;5.306;2023-03-31T16:34:07;4.10;;;0.98;;
25237;SDS011;13185;50.872;5.306;2023-03-31T16:36:35;2.53;;;0.65;;
25237;SDS011;13185;50.872;5.306;2023-03-31T16:39:01;2.63;;;0.68;;
25237;SDS011;13185;50.872;5.306;2023-03-31T16:41:29;4.63;;;1.33;;
25237;SDS011;13185;50.872;5.306;2023-03-31T16:43:56;4.55;;;0.88;;
25237;SDS011;13185;50.872;5.306;2023-03-31T16:46:22;5.97;;;0.80;;
25237;SDS011;13185;50.872;5.306;2023-03-31T16:48:48;2.75;;;0.80;;
25237;SDS011;13185;50.872;5.306;2023-03-31T16:51:14;5.53;;;0.70;;
25237;SDS011;13185;50.872;5.306;2023-03-31T16:53:41;2.28;;;0.50;;
25237;SDS011;13185;50.872;5.306;2023-03-31T16:56:07;4.50;;;0.57;;
25237;SDS011;13185;50.872;5.306;2023-03-31T16:58:34;1.92;;;0.40;;
25237;SDS011;13185;50.872;5.306;2023-03-31T17:01:02;5.18;;;1.38;;
25237;SDS011;13185;50.872;5.306;2023-03-31T17:03:30;4.10;;;0.70;;
25237;SDS011;13185;50.872;5.306;2023-03-31T17:05:56;4.25;;;1.33;;
25237;SDS011;13185;50.872;5.306;2023-03-31T17:08:24;3.60;;;0.60;;
25237;SDS011;13185;50.872;5.306;2023-03-31T17:13:19;3.33;;;0.60;;
25237;SDS011;13185;50.872;5.306;2023-03-31T17:15:45;3.50;;;0.80;;
25237;SDS011;13185;50.872;5.306;2023-03-31T17:18:10;5.95;;;0.80;;
25237;SDS011;13185;50.872;5.306;2023-03-31T17:20:36;3.92;;;0.63;;
25237;SDS011;13185;50.872;5.306;2023-03-31T17:23:02;4.07;;;0.80;;
25237;SDS011;13185;50.872;5.306;2023-03-31T17:25:28;7.65;;;0.98;;
25237;SDS011;13185;50.872;5.306;2023-03-31T17:27:54;5.85;;;0.80;;
25237;SDS011;13185;50.872;5.306;2023-03-31T17:30:21;4.13;;;0.40;;
25237;SDS011;13185;50.872;5.306;2023-03-31T17:32:47;2.13;;;0.80;;
25237;SDS011;13185;50.872;5.306;2023-03-31T17:35:13;5.00;;;0.65;;
25237;SDS011;13185;50.872;5.306;2023-03-31T17:37:46;3.72;;;0.65;;
25237;SDS011;13185;50.872;5.306;2023-03-31T17:40:14;3.97;;;0.65;;
25237;SDS011;13185;50.872;5.306;2023-03-31T17:42:40;4.72;;;0.70;;
25237;SDS011;13185;50.872;5.306;2023-03-31T17:45:07;2.22;;;0.40;;
25237;SDS011;13185;50.872;5.306;2023-03-31T17:47:33;2.95;;;0.47;;
25237;SDS011;13185;50.872;5.306;2023-03-31T17:49:58;4.07;;;1.33;;
25237;SDS011;13185;50.872;5.306;2023-03-31T17:52:25;5.47;;;0.57;;
25237;SDS011;13185;50.872;5.306;2023-03-31T17:54:50;5.50;;;0.82;;
25237;SDS011;13185;50.872;5.306;2023-03-31T17:57:16;5.68;;;0.70;;
25237;SDS011;13185;50.872;5.306;2023-03-31T17:59:42;4.43;;;0.90;;
25237;SDS011;13185;50.872;5.306;2023-03-31T18:02:12;5.40;;;0.68;;
25237;SDS011;13185;50.872;5.306;2023-03-31T18:04:39;6.18;;;1.80;;
25237;SDS011;13185;50.872;5.306;2023-03-31T18:07:05;6.07;;;0.98;;
25237;SDS011;13185;50.872;5.306;2023-03-31T18:09:31;4.47;;;1.10;;
25237;SDS011;13185;50.872;5.306;2023-03-31T18:11:56;5.10;;;0.98;;
25237;SDS011;13185;50.872;5.306;2023-03-31T18:14:22;4.20;;;0.75;;
25237;SDS011;13185;50.872;5.306;2023-03-31T18:16:48;5.43;;;1.50;;
25237;SDS011;13185;50.872;5.306;2023-03-31T18:19:14;5.28;;;0.93;;
25237;SDS011;13185;50.872;5.306;2023-03-31T18:21:39;6.20;;;1.33;;
25237;SDS011;13185;50.872;5.306;2023-03-31T18:24:05;10.40;;;1.52;;
25237;SDS011;13185;50.872;5.306;2023-03-31T18:26:31;8.68;;;1.45;;
25237;SDS011;13185;50.872;5.306;2023-03-31T18:28:56;5.70;;;1.20;;